createdAt,value
2023-01-12T00:02:26.664Z,101279.03
2023-01-12T00:04:54.355Z,101281.75
2023-01-12T00:07:22.062Z,101284.59
2023-01-12T00:09:49.699Z,101274.41
2023-01-12T00:12:17.493Z,101277.09
2023-01-12T00:14:45.461Z,101268.72
2023-01-12T00:17:17.109Z,101273.19
2023-01-12T00:19:44.748Z,101250.16
2023-01-12T00:22:12.760Z,101273.78
2023-01-12T00:24:49.847Z,101284.19
2023-01-12T00:27:20.082Z,101280.16
2023-01-12T00:29:49.174Z,101289.56
2023-01-12T00:32:20.396Z,101289.56
2023-01-12T00:34:48.068Z,101293.28
2023-01-12T00:37:15.967Z,101290.72
2023-01-12T00:39:53.127Z,101288.03
2023-01-12T00:42:43.486Z,101288.09
2023-01-12T00:45:23.891Z,101292.13
2023-01-12T00:47:52.053Z,101281.75
2023-01-12T00:50:19.899Z,101283.78
2023-01-12T00:52:47.688Z,101288.06
2023-01-12T06:12:12.898Z,101389.91
2023-01-12T06:14:40.331Z,101398.44
2023-01-12T06:17:07.838Z,101391.50
2023-01-12T06:19:35.460Z,101387.66
2023-01-12T06:22:02.944Z,101387.13
2023-01-12T06:24:30.420Z,101395.38
2023-01-12T06:26:58.635Z,101399.28
2023-01-12T06:29:26.310Z,101413.69
2023-01-12T06:31:53.723Z,101418.03
2023-01-12T06:34:21.189Z,101400.81
2023-01-12T06:36:49.469Z,101407.28
2023-01-12T06:39:24.659Z,101414.03
2023-01-12T06:42:29.408Z,101416.94
2023-01-12T06:45:01.184Z,101427.59
2023-01-12T06:47:32.067Z,101433.28
2023-01-12T06:50:01.072Z,101458.00
2023-01-12T06:52:30.366Z,101452.25
2023-01-12T06:55:11.313Z,101442.72
2023-01-12T06:57:40.652Z,101436.22
2023-01-12T07:00:10.143Z,101439.13
2023-01-12T07:02:37.936Z,101453.88
2023-01-12T07:05:06.909Z,101465.34
2023-01-12T07:07:34.970Z,101469.94
2023-01-12T07:10:02.349Z,101457.88
2023-01-12T07:12:30.471Z,101463.50
2023-01-12T07:14:59.422Z,101459.16
2023-01-12T07:17:27.651Z,101456.59
2023-01-12T07:19:56.072Z,101464.44
2023-01-12T07:22:26.083Z,101459.31
2023-01-12T07:24:56.479Z,101459.00
2023-01-12T07:27:28.063Z,101453.22
2023-01-12T07:29:56.687Z,101450.47
2023-01-12T07:32:27.472Z,101439.50
2023-01-12T07:34:55.110Z,101449.91
2023-01-12T07:37:22.686Z,101452.75
2023-01-12T07:39:50.196Z,101465.78
2023-01-12T07:42:23.492Z,101475.59
2023-01-12T07:44:52.250Z,101472.66
2023-01-12T07:47:19.734Z,101483.72
2023-01-12T07:49:47.357Z,101479.97
2023-01-12T07:52:16.302Z,101490.38
2023-01-12T07:54:50.583Z,101495.59
2023-01-12T07:57:18.914Z,101492.13
2023-01-12T07:59:46.266Z,101495.78
2023-01-12T08:02:17.451Z,101505.69
2023-01-12T08:04:46.098Z,101494.31
2023-01-12T08:07:14.913Z,101498.97
2023-01-12T08:09:42.389Z,101512.25
2023-01-12T08:12:10.483Z,101509.25
2023-01-12T08:14:40.458Z,101515.19
2023-01-12T08:17:12.881Z,101517.84
2023-01-12T08:19:46.090Z,101518.06
2023-01-12T08:22:19.076Z,101515.97
2023-01-12T08:24:54.513Z,101528.25
2023-01-12T08:27:25.817Z,101531.22
2023-01-12T08:29:57.518Z,101535.88
2023-01-12T08:32:28.598Z,101533.06
2023-01-12T08:35:01.753Z,101541.38
2023-01-12T08:37:31.217Z,101547.00
2023-01-12T08:39:58.736Z,101566.78
2023-01-12T08:42:29.671Z,101563.81
2023-01-12T08:44:58.344Z,101557.78
2023-01-12T08:47:28.303Z,101550.66
2023-01-12T08:49:59.179Z,101545.25
2023-01-12T08:52:45.314Z,101556.63
2023-01-12T08:55:12.913Z,101564.22
2023-01-12T08:57:40.375Z,101575.31
2023-01-12T09:00:14.226Z,101578.91
2023-01-12T09:02:41.815Z,101602.53
2023-01-12T09:05:09.536Z,101606.16
2023-01-12T09:07:37.271Z,101610.69
2023-01-12T09:10:06.447Z,101607.69
2023-01-12T09:12:33.804Z,101600.41
2023-01-12T09:15:01.089Z,101604.53
2023-01-12T09:17:28.741Z,101619.25
2023-01-12T09:19:56.103Z,101618.53
2023-01-12T09:22:24.293Z,101609.25
2023-01-12T09:24:51.744Z,101615.69
2023-01-12T09:27:19.085Z,101618.06
2023-01-12T09:29:46.629Z,101608.06
2023-01-12T09:32:14.055Z,101613.72
2023-01-12T09:34:41.501Z,101620.91
2023-01-12T09:37:08.951Z,101624.22
2023-01-12T09:39:36.305Z,101629.56
2023-01-12T09:42:23.997Z,101631.88
2023-01-12T09:45:11.285Z,101640.28
2023-01-12T09:47:48.545Z,101632.97
2023-01-12T09:50:20.490Z,101630.06
2023-01-12T09:52:54.792Z,101635.16
2023-01-12T09:55:25.178Z,101626.59
2023-01-12T09:57:58.378Z,101630.44
2023-01-12T10:00:28.173Z,101635.63
2023-01-12T10:03:10.697Z,101636.53
2023-01-12T10:05:42.359Z,101640.28
2023-01-12T10:08:33.785Z,101632.66
2023-01-12T10:11:30.493Z,101637.41
2023-01-12T10:14:18.009Z,101615.78
2023-01-12T10:16:51.430Z,101615.78
2023-01-12T10:19:27.886Z,101615.31
2023-01-12T10:21:56.177Z,101611.34
2023-01-12T10:24:25.572Z,101624.69
2023-01-12T10:27:01.375Z,101620.34
2023-01-12T10:29:31.856Z,101616.16
2023-01-12T10:31:59.463Z,101617.25
2023-01-12T10:34:26.965Z,101601.72
2023-01-12T10:36:59.513Z,101598.56
2023-01-12T10:39:35.686Z,101588.66
2023-01-12T10:42:43.989Z,101583.34
2023-01-12T10:45:18.713Z,101577.78
2023-01-12T10:47:47.210Z,101587.91
2023-01-12T10:50:27.971Z,101603.56
2023-01-12T10:53:05.896Z,101605.78
2023-01-12T10:55:38.324Z,101592.31
2023-01-12T10:58:19.668Z,101607.53
2023-01-12T11:00:49.765Z,101614.50
2023-01-12T11:03:32.065Z,101609.22
2023-01-12T11:06:18.402Z,101612.06
2023-01-12T11:08:45.796Z,101625.19
2023-01-12T11:11:31.057Z,101606.91
2023-01-12T11:14:03.400Z,101592.13
2023-01-12T11:16:32.140Z,101602.03
2023-01-12T11:19:31.469Z,101587.22
2023-01-12T11:22:13.372Z,101568.97
2023-01-12T11:24:57.330Z,101561.97
2023-01-12T11:27:27.535Z,101563.94
2023-01-12T11:29:58.835Z,101567.22
2023-01-12T11:32:38.195Z,101557.78
2023-01-12T11:35:22.517Z,101566.53
2023-01-12T11:37:54.105Z,101564.72
2023-01-12T11:40:32.991Z,101560.22
2023-01-12T11:43:34.704Z,101549.38
2023-01-12T11:46:22.658Z,101569.50
2023-01-12T11:49:08.540Z,101575.97
2023-01-12T11:51:36.455Z,101571.63
2023-01-12T11:54:06.600Z,101583.66
2023-01-12T11:57:01.263Z,101568.06
2023-01-12T12:00:00.710Z,101548.59
2023-01-12T12:02:37.533Z,101545.25
2023-01-12T12:05:23.467Z,101546.16
2023-01-12T12:07:53.594Z,101545.00
2023-01-12T12:10:34.906Z,101542.19
2023-01-12T12:13:30.714Z,101532.19
2023-01-12T12:16:16.397Z,101528.84
2023-01-12T12:18:56.094Z,101529.31
2023-01-12T12:21:41.608Z,101525.00
2023-01-12T12:24:14.908Z,101525.75
2023-01-12T12:26:48.190Z,101518.91
2023-01-12T12:29:31.186Z,101516.97
2023-01-12T12:32:13.490Z,101511.81
2023-01-12T12:34:49.293Z,101513.59
2023-01-12T12:37:22.362Z,101502.47
2023-01-12T12:39:57.296Z,101498.06
2023-01-12T12:42:54.521Z,101502.44
2023-01-12T12:46:00.179Z,101507.75
2023-01-12T12:48:36.327Z,101495.63
2023-01-12T12:51:07.744Z,101493.84
2023-01-12T12:53:42.198Z,101485.22
2023-01-12T12:56:16.114Z,101485.13
2023-01-12T12:58:47.273Z,101481.63
2023-01-12T13:01:20.566Z,101486.03
2023-01-12T13:03:56.367Z,101479.13
2023-01-12T13:06:29.575Z,101473.94
2023-01-12T13:08:59.549Z,101462.53
2023-01-12T13:11:57.872Z,101469.66
2023-01-12T13:14:36.024Z,101467.97
2023-01-12T13:17:29.145Z,101467.16
2023-01-12T13:20:08.509Z,101460.06
2023-01-12T13:22:46.630Z,101449.53
2023-01-12T13:25:16.752Z,101446.16
2023-01-12T13:28:03.997Z,101433.00
2023-01-12T13:30:31.514Z,101440.81
2023-01-12T13:33:00.277Z,101437.31
2023-01-12T13:35:47.636Z,101431.97
2023-01-12T13:38:43.906Z,101438.91
2023-01-12T13:41:11.906Z,101429.38
2023-01-12T13:43:49.793Z,101416.25
2023-01-12T13:46:37.870Z,101432.09
2023-01-12T13:49:30.521Z,101430.31
2023-01-12T13:52:05.190Z,101438.22
2023-01-12T13:54:37.255Z,101426.72
2023-01-12T13:57:26.316Z,101430.22
2023-01-12T14:00:11.940Z,101416.91
2023-01-12T14:02:42.370Z,101412.38
2023-01-12T14:05:35.951Z,101407.28
2023-01-12T14:08:51.754Z,101407.41
2023-01-12T14:11:30.269Z,101412.75
2023-01-12T14:14:57.764Z,101410.00
2023-01-12T14:17:49.915Z,101411.00
2023-01-12T14:20:33.009Z,101422.41
2023-01-12T14:23:17.143Z,101433.84
2023-01-12T14:25:46.566Z,101426.78
2023-01-12T14:28:24.601Z,101426.78
2023-01-12T14:30:54.580Z,101413.53
2023-01-12T14:33:34.395Z,101411.78
2023-01-12T14:36:17.823Z,101419.75
2023-01-12T14:38:46.213Z,101423.09
2023-01-12T14:41:39.124Z,101419.63
2023-01-12T14:44:33.453Z,101414.41
2023-01-12T14:47:01.005Z,101422.38
2023-01-12T14:49:31.630Z,101424.19
2023-01-12T14:52:21.989Z,101415.34
2023-01-12T14:54:49.743Z,101410.03
2023-01-12T14:57:26.885Z,101408.28
2023-01-12T14:59:55.075Z,101398.59
2023-01-12T15:02:39.088Z,101409.09
2023-01-12T15:05:19.861Z,101404.72
2023-01-12T15:07:55.954Z,101409.03
2023-01-12T15:10:42.376Z,101402.03
2023-01-12T15:13:40.807Z,101402.88
2023-01-12T15:16:28.016Z,101397.53
2023-01-12T15:19:13.766Z,101399.19
2023-01-12T15:22:02.796Z,101383.34
2023-01-12T15:24:51.900Z,101393.81
2023-01-12T15:27:22.545Z,101397.28
2023-01-12T15:29:50.780Z,101390.19
2023-01-12T15:32:21.230Z,101396.19
2023-01-12T15:34:52.279Z,101390.88
2023-01-12T15:37:20.734Z,101382.94
2023-01-12T15:39:48.353Z,101372.31
2023-01-12T15:42:22.279Z,101372.94
2023-01-12T15:44:51.778Z,101371.13
2023-01-12T15:47:20.455Z,101377.94
2023-01-12T15:49:49.134Z,101380.50
2023-01-12T15:52:22.744Z,101386.44
2023-01-12T15:54:50.940Z,101386.25
2023-01-12T15:57:18.968Z,101377.47
2023-01-12T15:59:46.401Z,101375.16
2023-01-12T16:02:35.331Z,101387.19
2023-01-12T16:05:06.447Z,101381.91
2023-01-12T16:07:34.025Z,101388.00
2023-01-12T16:10:01.620Z,101380.94
2023-01-12T16:12:29.170Z,101390.53
2023-01-12T16:14:58.672Z,101385.13
2023-01-12T16:17:26.287Z,101399.09
2023-01-12T16:19:56.759Z,101395.47
2023-01-12T16:22:26.889Z,101377.69
2023-01-12T16:24:57.307Z,101371.41
2023-01-12T16:27:26.884Z,101385.31
2023-01-12T16:29:54.733Z,101397.53
2023-01-12T16:32:26.522Z,101385.31
2023-01-12T16:34:54.217Z,101391.69
2023-01-12T16:37:23.250Z,101392.56
2023-01-12T16:39:50.745Z,101392.53
2023-01-12T16:42:18.393Z,101375.03
2023-01-12T16:44:49.464Z,101385.47
2023-01-12T16:47:19.669Z,101387.19
2023-01-12T16:49:51.185Z,101382.66
2023-01-12T16:52:22.176Z,101380.81
2023-01-12T16:54:49.674Z,101378.00
2023-01-12T16:57:18.271Z,101383.91
2023-01-12T16:59:45.988Z,101391.69
2023-01-12T17:02:17.577Z,101379.34
2023-01-12T17:04:45.868Z,101383.78
2023-01-12T17:07:13.674Z,101383.59
2023-01-12T17:09:41.269Z,101380.97
2023-01-12T17:12:09.015Z,101380.72
2023-01-12T17:14:36.796Z,101379.50
2023-01-12T17:17:08.328Z,101381.56
2023-01-12T17:19:37.982Z,101395.47
2023-01-12T17:22:07.789Z,101394.91
2023-01-12T17:24:39.754Z,101390.66
2023-01-12T17:27:09.204Z,101392.41
2023-01-12T17:29:37.245Z,101395.75
2023-01-12T17:32:06.806Z,101404.41
2023-01-12T17:34:41.658Z,101400.50
2023-01-12T17:37:10.541Z,101413.75
2023-01-12T17:39:50.047Z,101407.16
2023-01-12T17:42:36.321Z,101406.41
2023-01-12T17:45:05.513Z,101405.50
2023-01-12T17:47:42.135Z,101402.38
2023-01-12T17:50:11.317Z,101397.81
2023-01-12T17:52:41.178Z,101399.38
2023-01-12T17:55:08.931Z,101405.09
2023-01-12T17:57:36.788Z,101405.09
2023-01-12T18:00:06.739Z,101403.41
2023-01-12T18:02:40.437Z,101397.81
2023-01-12T18:05:08.522Z,101394.31
2023-01-12T18:07:36.489Z,101399.34
2023-01-12T18:10:04.281Z,101401.91
2023-01-12T18:12:32.003Z,101408.09
2023-01-12T18:15:01.546Z,101406.44
2023-01-12T18:17:32.935Z,101402.97
2023-01-12T18:20:00.375Z,101413.41
2023-01-12T18:22:27.849Z,101406.38
2023-01-12T18:24:55.761Z,101404.09
2023-01-12T18:27:25.919Z,101406.28
2023-01-12T18:29:54.251Z,101404.38
2023-01-12T18:32:21.763Z,101407.13
2023-01-12T18:34:49.421Z,101401.69
2023-01-12T18:37:17.274Z,101416.59
2023-01-12T18:39:48.608Z,101393.63
2023-01-12T18:42:34.560Z,101407.09
2023-01-12T18:45:04.983Z,101406.34
2023-01-12T18:47:56.952Z,101412.41
2023-01-12T18:50:42.861Z,101404.88
2023-01-12T18:53:25.377Z,101396.75
2023-01-12T18:55:56.959Z,101393.56
2023-01-12T18:58:27.535Z,101384.13
2023-01-12T19:01:02.780Z,101393.69
2023-01-12T19:03:31.054Z,101392.78
2023-01-12T19:06:19.274Z,101396.25
2023-01-12T19:09:05.445Z,101394.22
2023-01-12T19:11:33.079Z,101389.50
2023-01-12T19:14:18.865Z,101369.44
2023-01-12T19:17:04.652Z,101372.00
2023-01-12T19:19:32.419Z,101366.84
2023-01-12T19:22:18.663Z,101380.00
2023-01-12T19:25:04.331Z,101368.13
2023-01-12T19:27:50.528Z,101377.38
2023-01-12T19:30:18.026Z,101378.84
2023-01-12T19:32:45.490Z,101371.56
2023-01-12T19:35:13.070Z,101365.38
2023-01-12T19:37:45.902Z,101366.25
2023-01-12T19:40:21.102Z,101363.53
2023-01-12T19:43:06.718Z,101363.03
2023-01-12T19:45:37.146Z,101355.53
2023-01-12T19:48:04.869Z,101366.97
2023-01-12T19:50:32.308Z,101352.97
2023-01-12T19:52:59.971Z,101351.75
2023-01-12T19:55:27.326Z,101356.66
2023-01-12T19:57:55.069Z,101352.84
2023-01-12T20:00:22.714Z,101337.66
2023-01-12T20:02:50.149Z,101346.31
2023-01-12T20:05:22.573Z,101340.13
2023-01-12T20:07:52.717Z,101342.06
2023-01-12T20:10:23.733Z,101344.28
2023-01-12T20:12:52.438Z,101345.22
2023-01-12T20:15:20.828Z,101336.97
2023-01-12T20:17:49.287Z,101344.22
2023-01-12T20:20:17.396Z,101331.41
2023-01-12T20:22:45.100Z,101340.63
2023-01-12T20:25:12.541Z,101343.56
2023-01-12T20:27:40.255Z,101349.88
2023-01-12T20:30:08.411Z,101344.44
2023-01-12T20:32:41.635Z,101341.81
2023-01-12T20:35:13.344Z,101343.81
2023-01-12T20:37:42.043Z,101338.50
2023-01-12T20:40:11.608Z,101335.56
2023-01-12T20:42:39.944Z,101329.78
2023-01-12T20:45:09.612Z,101336.69
2023-01-12T20:47:37.413Z,101328.69
2023-01-12T20:50:07.623Z,101328.97
2023-01-12T20:52:35.470Z,101325.63
2023-01-12T20:55:02.945Z,101325.22
2023-01-12T20:57:31.736Z,101325.66
2023-01-12T20:59:59.297Z,101332.06
2023-01-12T21:02:27.495Z,101323.78
2023-01-12T21:04:55.120Z,101324.00
2023-01-12T21:07:22.481Z,101317.38
2023-01-12T21:09:52.026Z,101317.09
2023-01-12T21:12:21.773Z,101320.03
2023-01-12T21:14:50.220Z,101322.81
2023-01-12T21:17:19.092Z,101320.13
2023-01-12T21:19:46.748Z,101308.69
2023-01-12T21:22:14.376Z,101315.78
2023-01-12T21:24:41.897Z,101317.50
2023-01-12T21:27:13.147Z,101314.31
2023-01-12T21:29:40.595Z,101311.34
2023-01-12T21:32:08.351Z,101307.94
2023-01-12T21:34:35.856Z,101308.69
2023-01-12T21:37:03.326Z,101307.03
2023-01-12T21:39:31.014Z,101309.34
2023-01-12T21:42:16.875Z,101311.53
2023-01-12T21:44:44.700Z,101321.53
2023-01-12T21:47:12.089Z,101325.88
2023-01-12T21:49:39.536Z,101330.28
2023-01-12T21:52:06.970Z,101320.03
2023-01-12T21:54:34.600Z,101321.97
2023-01-12T21:57:02.153Z,101327.50
2023-01-12T21:59:29.730Z,101328.34
2023-01-12T22:01:57.633Z,101324.34
2023-01-12T22:04:25.229Z,101327.41
2023-01-12T22:06:53.119Z,101329.63
2023-01-12T22:09:20.847Z,101325.66
2023-01-12T22:11:48.272Z,101321.31
2023-01-12T22:14:15.787Z,101313.69
2023-01-12T22:16:43.237Z,101324.13
2023-01-12T22:19:10.678Z,101323.28
2023-01-12T22:21:38.496Z,101323.38
2023-01-12T22:24:06.432Z,101319.38
2023-01-12T22:26:33.929Z,101332.56
2023-01-12T22:29:01.438Z,101320.69
2023-01-12T22:31:29.119Z,101312.50
2023-01-12T22:34:06.577Z,101312.97
2023-01-12T22:36:42.691Z,101312.72
2023-01-12T22:39:13.428Z,101309.03
2023-01-12T22:41:41.299Z,101321.19
2023-01-12T22:44:08.839Z,101317.16
2023-01-12T22:46:37.008Z,101306.94
2023-01-12T22:49:04.651Z,101311.19
2023-01-12T22:51:32.184Z,101310.50
2023-01-12T22:54:00.071Z,101307.38
2023-01-12T22:56:27.658Z,101312.75
2023-01-12T22:58:55.882Z,101302.84
2023-01-12T23:01:25.602Z,101307.13
2023-01-12T23:03:57.625Z,101295.88
2023-01-12T23:06:26.370Z,101295.88
2023-01-12T23:08:53.979Z,101283.81
2023-01-12T23:11:26.589Z,101289.06
2023-01-12T23:13:57.361Z,101272.06
2023-01-12T23:16:25.983Z,101281.22
2023-01-12T23:18:55.216Z,101274.69
2023-01-12T23:21:26.514Z,101267.16
2023-01-12T23:23:58.728Z,101260.50
2023-01-12T23:26:30.911Z,101267.34
2023-01-12T23:29:00.616Z,101260.88
2023-01-12T23:31:30.472Z,101257.66
2023-01-12T23:33:58.075Z,101258.63
2023-01-12T23:36:27.820Z,101253.88
2023-01-12T23:38:59.575Z,101249.63
2023-01-12T23:41:29.298Z,101242.44
2023-01-12T23:43:59.556Z,101243.63
2023-01-12T23:46:28.983Z,101245.06
2023-01-12T23:48:57.857Z,101243.47
2023-01-12T23:51:27.526Z,101242.06
2023-01-12T23:53:59.753Z,101237.22
2023-01-12T23:56:29.559Z,101227.47
2023-01-12T23:58:57.124Z,101231.66
